Terminal Aerodrome Forecast
Issued by NWS

Home | Current Version | Previous Version | Graphics & Text | Print | Product List | Glossary On
Versions: 1 2 3 4 5 6 7 8 9 10 11 12 13 14 15 16
000
FTUS43 KGRB 272333
TAFAUW
TAF
KAUW 272333Z 2800/2824 15007G14KT P6SM FEW100 SCT250
     FM280200 VRB03KT P6SM SKC
      TEMPO 2810/2812 5SM BR
     FM281200 17009KT P6SM FEW100 BKN200
     FM281600 17012KT P6SM SCT040 BKN100
     FM281900 17010KT P6SM VCSH BKN035 OVC100=

USA.gov is the U.S. government's official web portal to all federal, state and local government web resources and services.